Santa Maria de Itabira, Brazil
Current Conditions -  °F | °C
As of 7:00 PM on Monday 20 Oct 2014 (Local Time) from SBLS Reporting Station
Thunderstorm Thunderstorm  
Wind Chill: 82°   Ceiling: Unl
Heat Index: 82°   Visibility: 6mi
Dew Point: 59°   Wind: 8mph
Humidity: 45%   Direction: 160°SSE
Pressure: 29.94"   Gusts: NA
Location:  19.45°S, 43.11°W
Report Text: SBLS 202200Z 16007KT 9999 VCTS FEW040 FEW050CB SCT100 28/15 Q1014
Loading
Personal Weather Stations






























Interactive Weather Map
Tropical Storm Tracking
New forecast layout! Learn more

10-Day Weather Forecast

Advertisements
Track Severe Weather on mobile